createdAt,value
2023-12-12T00:01:24.884Z,18.63
2023-12-12T00:03:58.153Z,18.45
2023-12-12T00:06:31.560Z,21.10
2023-12-12T00:09:04.642Z,27.40
2023-12-12T00:11:38.185Z,29.38
2023-12-12T00:14:12.350Z,24.00
2023-12-12T00:16:45.096Z,26.60
2023-12-12T00:19:18.024Z,26.33
2023-12-12T00:21:51.016Z,22.15
2023-12-12T00:24:23.697Z,27.05
2023-12-12T00:26:57.724Z,23.08
2023-12-12T00:29:32.736Z,28.05
2023-12-12T00:32:06.016Z,30.67
2023-12-12T00:34:39.227Z,30.02
2023-12-12T00:37:12.313Z,24.52
2023-12-12T00:39:45.352Z,26.88
2023-12-12T00:42:18.465Z,21.55
2023-12-12T00:44:52.790Z,22.48
2023-12-12T00:47:27.002Z,21.23
2023-12-12T00:50:00.082Z,20.88
2023-12-12T00:52:33.044Z,25.90
2023-12-12T00:55:06.821Z,22.55
2023-12-12T00:57:39.993Z,25.08
2023-12-12T01:00:15.591Z,28.23
2023-12-12T01:02:49.822Z,29.58
2023-12-12T01:05:23.171Z,32.50
2023-12-12T01:07:57.162Z,27.73
2023-12-12T01:10:30.217Z,28.33
2023-12-12T01:13:05.668Z,31.02
2023-12-12T01:15:42.788Z,28.60
2023-12-12T01:18:16.208Z,31.00
2023-12-12T01:20:56.645Z,35.78
2023-12-12T01:23:30.001Z,36.50
2023-12-12T01:26:03.492Z,35.25
2023-12-12T01:28:36.280Z,35.42
2023-12-12T01:31:13.099Z,29.20
2023-12-12T01:33:46.956Z,30.88
2023-12-12T01:36:20.299Z,30.50
2023-12-12T01:38:53.516Z,30.40
2023-12-12T01:41:26.497Z,29.67
2023-12-12T01:43:59.713Z,36.20
2023-12-12T01:46:35.881Z,29.67
2023-12-12T01:49:09.986Z,26.55
2023-12-12T01:51:42.850Z,29.55
2023-12-12T01:54:17.937Z,28.38
2023-12-12T01:56:53.978Z,27.60
2023-12-12T01:59:28.127Z,27.00
2023-12-12T02:02:02.964Z,25.17
2023-12-12T02:04:36.424Z,29.85
2023-12-12T02:07:10.015Z,29.83
2023-12-12T02:09:43.524Z,30.30
2023-12-12T02:12:16.594Z,26.15
2023-12-12T02:14:50.670Z,33.42
2023-12-12T02:17:25.179Z,27.58
2023-12-12T02:20:01.838Z,27.70
2023-12-12T02:22:36.655Z,30.55
2023-12-12T02:25:10.165Z,32.33
2023-12-12T02:27:43.046Z,31.20
2023-12-12T02:30:17.671Z,29.33
2023-12-12T02:32:50.591Z,31.00
2023-12-12T02:35:23.504Z,33.28
2023-12-12T02:37:59.931Z,33.65
2023-12-12T02:40:33.184Z,32.35
2023-12-12T02:43:06.588Z,36.42
2023-12-12T02:45:39.376Z,31.75
2023-12-12T02:48:13.820Z,35.88
2023-12-12T02:50:46.909Z,31.35
2023-12-12T02:53:22.433Z,31.13
2023-12-12T02:55:57.383Z,33.90
2023-12-12T02:58:30.334Z,40.35
2023-12-12T03:01:05.534Z,36.97
2023-12-12T03:03:40.719Z,33.55
2023-12-12T03:06:13.657Z,40.90
2023-12-12T03:08:47.750Z,40.38
2023-12-12T03:11:20.801Z,37.90
2023-12-12T03:13:54.087Z,35.33
2023-12-12T03:16:27.142Z,37.35
2023-12-12T03:19:00.271Z,47.75
2023-12-12T03:21:34.409Z,40.55
2023-12-12T03:24:08.866Z,39.40
2023-12-12T03:26:41.696Z,40.83
2023-12-12T03:29:15.997Z,44.80
2023-12-12T03:31:49.145Z,58.33
2023-12-12T03:34:24.446Z,39.15
2023-12-12T03:37:03.474Z,40.45
2023-12-12T03:42:11.664Z,35.72
2023-12-12T03:44:44.884Z,40.35
2023-12-12T03:47:18.032Z,44.65
2023-12-12T03:49:51.327Z,46.75
2023-12-12T03:52:24.644Z,46.20
2023-12-12T03:54:58.894Z,48.42
2023-12-12T03:57:32.033Z,46.70
2023-12-12T04:00:10.059Z,55.25
2023-12-12T04:02:43.101Z,59.45
2023-12-12T04:05:16.333Z,68.97
2023-12-12T04:07:49.240Z,41.55
2023-12-12T04:10:23.560Z,45.33
2023-12-12T04:12:58.622Z,56.72
2023-12-12T04:15:31.457Z,48.60
2023-12-12T04:18:05.585Z,43.40
2023-12-12T04:20:38.650Z,71.53
2023-12-12T04:23:12.450Z,40.83
2023-12-12T04:25:47.104Z,53.58
2023-12-12T04:28:20.345Z,65.63
2023-12-12T04:30:53.198Z,79.18
2023-12-12T04:33:26.236Z,46.38
2023-12-12T04:35:59.097Z,41.58
2023-12-12T04:38:33.809Z,39.90
2023-12-12T04:41:10.163Z,40.45
2023-12-12T04:43:43.363Z,36.88
2023-12-12T04:46:22.791Z,37.15
2023-12-12T04:48:55.693Z,38.40
2023-12-12T04:51:28.905Z,42.03
2023-12-12T04:54:01.744Z,47.45
2023-12-12T04:56:39.769Z,42.95
2023-12-12T04:59:12.737Z,39.50
2023-12-12T05:01:45.811Z,43.10
2023-12-12T05:04:18.763Z,38.78
2023-12-12T05:06:52.259Z,32.95
2023-12-12T05:09:25.625Z,37.38
2023-12-12T05:11:59.822Z,35.83
2023-12-12T05:14:32.615Z,35.50
2023-12-12T05:17:10.781Z,33.40
2023-12-12T05:19:44.762Z,28.67
2023-12-12T05:22:17.894Z,30.23
2023-12-12T05:24:50.762Z,32.17
2023-12-12T05:27:24.856Z,32.75
2023-12-12T05:29:57.657Z,32.95
2023-12-12T05:32:31.887Z,32.95
2023-12-12T05:35:05.651Z,31.92
2023-12-12T05:37:38.559Z,34.20
2023-12-12T05:40:15.547Z,38.40
2023-12-12T05:42:49.946Z,27.85
2023-12-12T05:45:22.979Z,33.92
2023-12-12T05:47:55.935Z,33.40
2023-12-12T05:50:28.757Z,31.05
2023-12-12T05:53:01.625Z,32.88
2023-12-12T05:55:34.926Z,33.15
2023-12-12T05:58:09.341Z,31.50
2023-12-12T06:00:42.149Z,35.42
2023-12-12T06:03:14.972Z,35.50
2023-12-12T06:05:47.794Z,34.25
2023-12-12T06:08:20.643Z,34.67
2023-12-12T06:10:53.543Z,33.30
2023-12-12T06:13:27.937Z,37.80
2023-12-12T06:16:00.728Z,33.58
2023-12-12T06:18:33.585Z,36.50
2023-12-12T06:21:06.785Z,42.40
2023-12-12T06:23:40.805Z,37.25
2023-12-12T06:26:14.969Z,36.13
2023-12-12T06:28:51.381Z,40.15
2023-12-12T06:31:24.876Z,37.10
2023-12-12T06:33:57.929Z,38.42
2023-12-12T06:36:30.846Z,40.55
2023-12-12T06:39:04.554Z,35.75
2023-12-12T06:41:37.954Z,40.33
2023-12-12T06:44:12.287Z,42.42
2023-12-12T06:46:45.066Z,38.97
2023-12-12T06:49:18.174Z,39.10
2023-12-12T06:51:51.218Z,45.42
2023-12-12T06:54:24.059Z,37.42
2023-12-12T06:56:56.860Z,36.88
2023-12-12T06:59:31.154Z,43.53
2023-12-12T07:02:09.917Z,36.53
2023-12-12T07:07:15.909Z,34.88
2023-12-12T07:09:58.994Z,45.25
2023-12-12T07:12:33.092Z,36.55
2023-12-12T07:15:08.433Z,44.17
2023-12-12T07:17:41.837Z,41.60
2023-12-12T07:20:14.938Z,46.90
2023-12-12T07:22:47.862Z,39.50
2023-12-12T07:25:21.776Z,47.38
2023-12-12T07:27:54.705Z,44.90
2023-12-12T07:30:29.443Z,41.90
2023-12-12T07:33:02.310Z,48.70
2023-12-12T07:35:35.366Z,50.15
2023-12-12T07:38:08.299Z,46.03
2023-12-12T07:40:41.292Z,46.15
2023-12-12T07:43:14.179Z,50.08
2023-12-12T07:45:48.545Z,45.95
2023-12-12T07:48:21.459Z,41.92
2023-12-12T07:50:54.511Z,44.00
2023-12-12T07:53:27.507Z,43.38
2023-12-12T07:56:00.638Z,40.75
2023-12-12T07:58:33.563Z,44.67
2023-12-12T08:01:08.335Z,49.08
2023-12-12T08:03:41.328Z,40.33
2023-12-12T08:06:16.021Z,32.25
2023-12-12T08:08:49.908Z,41.20
2023-12-12T08:11:26.076Z,38.92
2023-12-12T08:13:59.242Z,34.13
2023-12-12T08:16:33.595Z,39.45
2023-12-12T08:19:06.721Z,38.55
2023-12-12T08:21:39.608Z,39.83
2023-12-12T08:24:13.536Z,49.75
2023-12-12T08:26:48.244Z,46.08
2023-12-12T08:29:21.262Z,44.13
2023-12-12T08:31:55.530Z,46.22
2023-12-12T08:34:28.621Z,36.53
2023-12-12T08:37:02.252Z,42.85
2023-12-12T08:39:35.149Z,39.47
2023-12-12T08:42:08.077Z,43.05
2023-12-12T08:44:43.179Z,43.63
2023-12-12T08:47:17.917Z,38.63
2023-12-12T08:49:50.875Z,33.55
2023-12-12T08:52:23.750Z,36.35
2023-12-12T08:54:57.924Z,37.22
2023-12-12T08:57:31.078Z,36.30
2023-12-12T09:00:05.006Z,36.88
2023-12-12T09:02:39.288Z,42.15
2023-12-12T09:05:12.078Z,33.00
2023-12-12T09:07:45.263Z,41.95
2023-12-12T09:10:18.069Z,37.03
2023-12-12T09:12:50.802Z,44.88
2023-12-12T09:15:25.099Z,38.22
2023-12-12T09:18:11.228Z,38.95
2023-12-12T09:20:52.011Z,41.90
2023-12-12T09:23:29.020Z,37.97
2023-12-12T09:26:01.948Z,41.88
2023-12-12T09:28:34.778Z,41.75
2023-12-12T09:31:07.750Z,41.20
2023-12-12T09:33:44.415Z,47.17
2023-12-12T09:36:17.428Z,38.92
2023-12-12T09:38:50.291Z,40.58
2023-12-12T09:41:24.438Z,39.58
2023-12-12T09:43:59.125Z,42.13
2023-12-12T09:46:32.941Z,44.22
2023-12-12T09:49:10.272Z,40.92
2023-12-12T09:51:44.046Z,42.78
2023-12-12T09:54:18.044Z,40.42
2023-12-12T09:56:51.918Z,40.58
2023-12-12T09:59:24.702Z,38.70
2023-12-12T10:02:06.601Z,35.75
2023-12-12T10:04:48.347Z,44.53
2023-12-12T10:07:22.074Z,41.92
2023-12-12T10:09:55.526Z,36.13
2023-12-12T10:12:31.448Z,37.45
2023-12-12T10:15:05.001Z,42.92
2023-12-12T10:17:40.448Z,36.00
2023-12-12T10:20:15.303Z,40.47
2023-12-12T10:22:48.377Z,35.33
2023-12-12T10:25:24.167Z,39.55
2023-12-12T10:27:57.093Z,38.42
2023-12-12T10:30:30.345Z,41.78
2023-12-12T10:33:04.610Z,38.10
2023-12-12T10:35:45.791Z,39.03
2023-12-12T10:38:26.498Z,37.20
2023-12-12T10:41:11.919Z,37.63
2023-12-12T10:43:46.206Z,39.70
2023-12-12T10:46:21.687Z,38.38
2023-12-12T10:48:56.332Z,33.97
2023-12-12T10:51:31.187Z,35.78
2023-12-12T10:54:06.314Z,35.08
2023-12-12T10:56:39.603Z,33.97
2023-12-12T10:59:56.324Z,36.40
2023-12-12T11:02:11.801Z,35.63
2023-12-12T11:04:46.455Z,36.42
2023-12-12T11:07:21.041Z,33.85
2023-12-12T11:09:54.896Z,32.53
2023-12-12T11:12:30.173Z,32.83
2023-12-12T11:15:06.038Z,29.85
2023-12-12T11:17:39.207Z,32.10
2023-12-12T11:20:16.764Z,28.20
2023-12-12T11:22:54.491Z,29.77
2023-12-12T11:25:32.238Z,33.70
2023-12-12T11:28:07.487Z,33.55
2023-12-12T11:30:41.252Z,31.48
2023-12-12T11:33:14.296Z,29.45
2023-12-12T11:35:48.234Z,32.50
2023-12-12T11:38:34.182Z,34.75
2023-12-12T11:41:11.324Z,32.17
2023-12-12T11:43:46.289Z,34.25
2023-12-12T11:46:20.923Z,34.58
2023-12-12T11:48:55.099Z,29.92
2023-12-12T11:51:47.929Z,32.55
2023-12-12T11:54:25.805Z,31.20
2023-12-12T11:56:59.969Z,30.83
2023-12-12T11:59:34.509Z,26.15
2023-12-12T12:02:07.578Z,23.05
2023-12-12T12:04:40.638Z,22.02
2023-12-12T12:07:13.981Z,21.70
2023-12-12T12:09:51.103Z,23.15
2023-12-12T12:12:25.703Z,18.77
2023-12-12T12:15:05.090Z,23.63
2023-12-12T12:17:38.735Z,22.90
2023-12-12T12:20:11.940Z,20.92
2023-12-12T12:22:45.100Z,23.75
2023-12-12T12:25:28.612Z,21.83
2023-12-12T12:28:03.077Z,23.48
2023-12-12T12:30:46.330Z,22.35
2023-12-12T12:33:19.247Z,22.27
2023-12-12T12:35:53.241Z,21.55
2023-12-12T12:38:26.995Z,20.25
2023-12-12T12:41:01.718Z,20.73
2023-12-12T12:43:34.791Z,20.95
2023-12-12T12:46:09.597Z,22.52
2023-12-12T12:48:42.718Z,20.08
2023-12-12T12:51:15.603Z,19.48
2023-12-12T12:53:48.783Z,21.35
2023-12-12T12:56:24.027Z,24.05
2023-12-12T12:59:10.750Z,22.70
2023-12-12T13:01:43.870Z,22.50
2023-12-12T13:04:18.231Z,24.02
2023-12-12T13:06:51.238Z,22.33
2023-12-12T13:09:25.117Z,19.45
2023-12-12T13:11:59.969Z,23.70
2023-12-12T13:14:33.057Z,20.92
2023-12-12T13:17:07.734Z,21.70
2023-12-12T13:19:40.958Z,21.30
2023-12-12T13:22:14.127Z,20.67
2023-12-12T13:24:47.282Z,22.40
2023-12-12T13:27:21.880Z,19.65
2023-12-12T13:29:54.598Z,18.13
2023-12-12T13:32:27.911Z,18.17
2023-12-12T13:35:02.154Z,20.08
2023-12-12T13:37:36.140Z,20.63
2023-12-12T13:40:10.081Z,19.30
2023-12-12T13:42:44.456Z,21.45
2023-12-12T13:45:18.333Z,26.30
2023-12-12T13:47:51.682Z,29.50
2023-12-12T13:50:24.559Z,23.85
2023-12-12T13:52:57.607Z,24.50
2023-12-12T13:55:30.856Z,21.58
2023-12-12T13:58:11.547Z,34.55
2023-12-12T14:00:45.758Z,22.52
2023-12-12T14:03:20.192Z,21.95
2023-12-12T14:05:53.166Z,22.58
2023-12-12T14:08:27.845Z,26.00
2023-12-12T14:11:00.959Z,26.38
2023-12-12T14:13:35.265Z,24.45
2023-12-12T14:16:08.971Z,21.60
2023-12-12T14:18:42.179Z,18.88
2023-12-12T14:21:15.338Z,18.63
2023-12-12T14:23:48.217Z,27.58
2023-12-12T14:26:23.369Z,19.55
2023-12-12T14:28:57.766Z,18.80
2023-12-12T14:31:30.548Z,23.10
2023-12-12T14:34:05.174Z,19.90
2023-12-12T14:36:38.480Z,22.63
2023-12-12T14:39:14.086Z,20.45
2023-12-12T14:41:48.634Z,16.80
2023-12-12T14:44:22.987Z,19.50
2023-12-12T14:46:55.846Z,20.52
2023-12-12T14:49:28.711Z,17.23
2023-12-12T14:52:01.574Z,21.48
2023-12-12T14:54:34.379Z,21.10
2023-12-12T14:57:13.403Z,20.33
2023-12-12T14:59:55.075Z,20.42
2023-12-12T15:02:28.792Z,18.88
2023-12-12T15:05:01.705Z,20.45
2023-12-12T15:07:34.519Z,18.88
2023-12-12T15:10:08.846Z,16.33
2023-12-12T15:12:41.930Z,17.45
2023-12-12T15:15:17.171Z,15.98
2023-12-12T15:17:50.580Z,19.55
2023-12-12T15:20:23.684Z,18.23
2023-12-12T15:22:56.485Z,24.20
2023-12-12T15:25:36.172Z,17.13
2023-12-12T15:28:25.002Z,16.83
2023-12-12T15:31:05.569Z,19.77
2023-12-12T15:33:42.092Z,17.15
2023-12-12T15:36:15.008Z,19.85
2023-12-12T15:38:48.897Z,17.77
2023-12-12T15:41:21.971Z,20.27
2023-12-12T15:43:56.620Z,23.60
2023-12-12T15:46:32.244Z,19.23
2023-12-12T15:49:05.628Z,23.70
2023-12-12T15:51:39.528Z,17.13
2023-12-12T15:54:13.815Z,21.15
2023-12-12T15:56:46.819Z,17.08
2023-12-12T15:59:20.912Z,21.25
2023-12-12T16:01:55.449Z,19.00
2023-12-12T16:04:29.845Z,17.83
2023-12-12T16:07:04.486Z,20.42
2023-12-12T16:09:37.500Z,20.40
2023-12-12T16:12:10.858Z,16.33
2023-12-12T16:14:44.222Z,18.13
2023-12-12T16:17:19.655Z,16.48
2023-12-12T16:19:52.894Z,15.35
2023-12-12T16:22:25.780Z,15.35
2023-12-12T16:24:58.797Z,21.02
2023-12-12T16:27:31.882Z,17.13
2023-12-12T16:30:07.506Z,16.80
2023-12-12T16:32:42.133Z,18.90
2023-12-12T16:35:15.045Z,15.57
2023-12-12T16:37:47.864Z,18.40
2023-12-12T16:40:20.907Z,16.65
2023-12-12T16:42:53.783Z,16.23
2023-12-12T16:45:26.592Z,18.88
2023-12-12T16:48:02.287Z,19.38
2023-12-12T16:50:35.547Z,19.67
2023-12-12T16:53:14.852Z,18.25
2023-12-12T16:55:48.096Z,17.98
2023-12-12T16:58:22.004Z,18.20
2023-12-12T17:00:54.852Z,16.27
2023-12-12T17:03:29.138Z,14.45
2023-12-12T17:06:04.512Z,20.42
2023-12-12T17:08:37.985Z,21.88
2023-12-12T17:11:10.961Z,19.20
2023-12-12T17:13:43.866Z,14.10
2023-12-12T17:16:16.987Z,19.88
2023-12-12T17:18:51.459Z,16.05
2023-12-12T17:21:24.485Z,15.52
2023-12-12T17:23:57.473Z,16.77
2023-12-12T17:26:30.399Z,16.75
2023-12-12T17:29:03.195Z,15.98
2023-12-12T17:31:35.989Z,17.55
2023-12-12T17:34:10.200Z,18.17
2023-12-12T17:36:43.542Z,17.05
2023-12-12T17:39:16.770Z,14.90
2023-12-12T17:41:49.546Z,22.58
2023-12-12T17:44:22.295Z,22.50
2023-12-12T17:46:55.548Z,20.75
2023-12-12T17:49:29.820Z,17.55
2023-12-12T17:52:02.789Z,21.05
2023-12-12T17:54:35.490Z,22.15
2023-12-12T17:57:08.561Z,17.38
2023-12-12T17:59:41.321Z,20.90
2023-12-12T18:02:14.115Z,22.00
2023-12-12T18:04:48.510Z,20.20
2023-12-12T18:07:21.765Z,29.95
2023-12-12T18:09:55.445Z,21.27
2023-12-12T18:12:28.238Z,23.17
2023-12-12T18:15:01.286Z,21.25
2023-12-12T18:17:34.835Z,23.02
2023-12-12T18:20:10.971Z,24.05
2023-12-12T18:22:43.981Z,23.70
2023-12-12T18:25:16.832Z,22.73
2023-12-12T18:27:49.740Z,23.33
2023-12-12T18:30:28.157Z,22.98
2023-12-12T18:33:01.452Z,22.85
2023-12-12T18:35:35.654Z,25.73
2023-12-12T18:38:09.317Z,19.77
2023-12-12T18:40:42.363Z,18.90
2023-12-12T18:43:15.194Z,20.25
2023-12-12T18:45:48.567Z,22.17
2023-12-12T18:48:21.639Z,22.60
2023-12-12T18:50:55.935Z,27.08
2023-12-12T18:53:30.790Z,20.27
2023-12-12T18:56:07.334Z,23.38
2023-12-12T18:58:40.572Z,23.38
2023-12-12T19:01:17.207Z,22.25
2023-12-12T19:03:50.346Z,20.85
2023-12-12T19:06:24.973Z,21.88
2023-12-12T19:08:57.780Z,21.55
2023-12-12T19:11:30.640Z,21.88
2023-12-12T19:14:04.476Z,22.55
2023-12-12T19:16:39.420Z,26.17
2023-12-12T19:19:12.488Z,22.60
2023-12-12T19:21:46.779Z,21.17
2023-12-12T19:24:19.716Z,21.55
2023-12-12T19:26:53.288Z,24.13
2023-12-12T19:29:28.813Z,19.60
2023-12-12T19:32:05.219Z,26.02
2023-12-12T19:34:39.584Z,29.85
2023-12-12T19:37:14.516Z,22.98
2023-12-12T19:39:48.325Z,24.08
2023-12-12T19:42:21.612Z,23.88
2023-12-12T19:44:56.063Z,25.48
2023-12-12T19:47:30.043Z,24.10
2023-12-12T19:50:05.885Z,23.45
2023-12-12T19:52:41.230Z,29.52
2023-12-12T19:55:14.831Z,20.55
2023-12-12T19:57:48.471Z,19.17
2023-12-12T20:00:21.502Z,19.77
2023-12-12T20:02:54.641Z,25.17
2023-12-12T20:05:27.788Z,22.80
2023-12-12T20:08:02.219Z,24.05
2023-12-12T20:10:36.741Z,19.83
2023-12-12T20:13:11.349Z,20.77
2023-12-12T20:15:46.770Z,24.00
2023-12-12T20:18:22.524Z,23.65
2023-12-12T20:20:56.897Z,17.13
2023-12-12T20:23:31.167Z,19.13
2023-12-12T20:26:05.963Z,18.50
2023-12-12T20:28:39.305Z,18.13
2023-12-12T20:31:12.908Z,22.52
2023-12-12T20:33:46.432Z,20.38
2023-12-12T20:36:19.508Z,23.33
2023-12-12T20:38:53.706Z,20.52
2023-12-12T20:41:30.352Z,19.23
2023-12-12T20:44:04.373Z,17.58
2023-12-12T20:46:39.982Z,20.50
2023-12-12T20:49:14.129Z,17.83
2023-12-12T20:51:50.027Z,17.05
2023-12-12T20:54:28.013Z,17.58
2023-12-12T20:57:03.219Z,20.00
2023-12-12T20:59:36.155Z,19.65
2023-12-12T21:02:09.312Z,19.15
2023-12-12T21:04:43.403Z,16.67
2023-12-12T21:07:16.946Z,19.70
2023-12-12T21:09:51.494Z,16.27
2023-12-12T21:12:24.170Z,15.85
2023-12-12T21:14:57.025Z,23.48
2023-12-12T21:17:30.305Z,18.40
2023-12-12T21:20:05.672Z,20.30
2023-12-12T21:22:43.269Z,21.15
2023-12-12T21:25:18.146Z,18.88
2023-12-12T21:27:51.266Z,21.70
2023-12-12T21:30:26.021Z,21.10
2023-12-12T21:32:59.611Z,21.73
2023-12-12T21:35:34.794Z,23.48
2023-12-12T21:38:08.350Z,25.67
2023-12-12T21:40:42.514Z,20.92
2023-12-12T21:43:16.151Z,20.17
2023-12-12T21:45:49.214Z,22.95
2023-12-12T21:48:22.252Z,19.92
2023-12-12T21:50:55.063Z,19.90
2023-12-12T21:53:29.828Z,20.67
2023-12-12T21:56:05.130Z,25.67
2023-12-12T21:58:39.395Z,20.25
2023-12-12T22:01:13.026Z,19.92
2023-12-12T22:03:46.344Z,18.55
2023-12-12T22:06:19.637Z,16.63
2023-12-12T22:08:52.602Z,19.63
2023-12-12T22:11:26.683Z,21.70
2023-12-12T22:14:00.849Z,20.63
2023-12-12T22:16:34.249Z,20.80
2023-12-12T22:19:07.182Z,28.60
2023-12-12T22:21:40.727Z,19.38
2023-12-12T22:24:13.486Z,19.92
2023-12-12T22:26:48.109Z,20.05
2023-12-12T22:29:20.945Z,19.95
2023-12-12T22:31:56.355Z,27.95
2023-12-12T22:34:29.434Z,19.73
2023-12-12T22:37:02.659Z,19.65
2023-12-12T22:39:36.080Z,20.33
2023-12-12T22:42:11.083Z,18.67
2023-12-12T22:44:44.248Z,21.90
2023-12-12T22:47:17.241Z,18.05
2023-12-12T22:49:50.174Z,18.77
2023-12-12T22:52:24.632Z,19.85
2023-12-12T22:54:57.533Z,19.67
2023-12-12T22:57:32.002Z,20.52
2023-12-12T23:00:25.702Z,23.88
2023-12-12T23:02:57.949Z,21.30
2023-12-12T23:05:31.088Z,22.63
2023-12-12T23:08:06.279Z,20.00
2023-12-12T23:10:39.716Z,20.92
2023-12-12T23:13:14.218Z,20.52
2023-12-12T23:15:49.089Z,26.35
2023-12-12T23:18:22.564Z,21.52
2023-12-12T23:20:56.717Z,17.58
2023-12-12T23:23:29.781Z,21.48
2023-12-12T23:26:03.388Z,20.42
2023-12-12T23:28:41.457Z,21.88
2023-12-12T23:31:14.417Z,19.25
2023-12-12T23:33:47.829Z,22.40
2023-12-12T23:36:20.976Z,20.88
2023-12-12T23:38:54.631Z,17.90
2023-12-12T23:41:27.388Z,20.27
2023-12-12T23:44:01.663Z,23.02
2023-12-12T23:46:34.435Z,18.48
2023-12-12T23:49:07.395Z,20.55
2023-12-12T23:51:40.172Z,23.17
2023-12-12T23:54:15.480Z,18.38
2023-12-12T23:56:48.555Z,21.77
2023-12-12T23:59:22.692Z,24.95
